Terminal Aerodrome Forecast
Issued by NWS

Current Version | Previous Version | Graphics & Text | Print | Product List | Glossary On
Versions: 1 2 3 4 5 6 7 8 9 10 11 12 13 14 15 16 17 18 19 20 21 22 23 24 25
000
FTUS41 KILN 152002 AAA
TAFLCK
TAF AMD
KLCK 152002Z 1520/1618 21006KT P6SM VCSH SCT016 BKN022 OVC028
     FM152200 23012G22KT 3SM SHRA VCTS OVC015CB
     FM160400 25011G21KT 2SM SHRA OVC008
     FM160900 31009KT 3SM -SHRA OVC015
     FM161400 33011KT P6SM VCSH OVC015=

USA.gov is the U.S. government's official web portal to all federal, state and local government web resources and services.